Time;durP1;ratioP1;P1;durP2;ratioP2;P2;SDS_P1;SDS_P2;PMS_P1;PMS_P2;Temp;Humidity;BMP_temperature;BMP_pressure;BME280_temperature;BME280_humidity;BME280_pressure;Samples;Min_cycle;Max_cycle;Signal;HPM_P1;HPM_P2
2023/01/17 00:00:34;;;;;;;1.42;0.70;;;20.50;50.60;;;;;;5020789;28;20461;-67
2023/01/17 00:02:59;;;;;;;1.35;0.80;;;20.50;50.60;;;;;;5022021;28;20088;-65
2023/01/17 00:10:57;;;;;;;1.42;0.73;;;20.40;50.70;;;;;;5023524;28;20076;-65
2023/01/17 00:13:23;;;;;;;1.50;0.70;;;20.40;50.70;;;;;;5021560;28;20022;-66
2023/01/17 00:15:48;;;;;;;1.63;0.80;;;20.40;50.90;;;;;;5021799;28;20038;-66
2023/01/17 00:18:14;;;;;;;1.20;0.70;;;20.50;51.00;;;;;;5021907;28;20037;-66
2023/01/17 00:26:16;;;;;;;1.25;0.70;;;20.40;51.00;;;;;;5022652;28;20108;-66
2023/01/17 01:35:49;;;;;;;0.98;0.60;;;20.00;51.10;;;;;;5022713;28;20400;-66
2023/01/17 01:38:21;;;;;;;1.25;0.70;;;20.10;51.10;;;;;;5027541;28;20480;-66
2023/01/17 01:40:49;;;;;;;0.95;0.70;;;20.00;51.10;;;;;;5022087;28;20099;-66
2023/01/17 01:43:19;;;;;;;0.80;0.60;;;20.00;51.10;;;;;;5014879;28;20037;-65
2023/01/17 01:45:47;;;;;;;;;;;20.00;51.20;;;;;;5015040;28;20087;-66
2023/01/17 01:48:35;;;;;;;0.80;0.52;;;20.00;51.20;;;;;;5019940;28;19992;-66
2023/01/17 01:51:05;;;;;;;1.00;0.68;;;20.00;51.30;;;;;;5020829;28;20029;-66
2023/01/17 01:53:36;;;;;;;1.13;0.60;;;20.00;51.30;;;;;;5017398;28;20026;-65
2023/01/17 01:56:06;;;;;;;0.68;0.60;;;20.00;51.40;;;;;;5025993;28;20029;-66
2023/01/17 01:58:33;;;;;;;0.55;0.50;;;20.00;51.40;;;;;;5018109;28;20030;-65
2023/01/17 02:00:59;;;;;;;0.65;0.52;;;20.00;51.40;;;;;;5027532;28;20089;-66
2023/01/17 02:03:30;;;;;;;0.65;0.50;;;19.90;51.40;;;;;;5022058;28;20520;-66
2023/01/17 02:06:01;;;;;;;0.90;0.60;;;19.90;51.40;;;;;;5022877;28;20032;-65
2023/01/17 02:08:27;;;;;;;0.85;0.60;;;19.90;51.40;;;;;;5019846;28;20022;-66
2023/01/17 02:10:53;;;;;;;0.60;0.50;;;19.90;51.50;;;;;;5020769;28;20064;-65
2023/01/17 02:13:19;;;;;;;1.05;0.60;;;19.90;51.50;;;;;;5018392;28;20033;-66
2023/01/17 02:16:22;;;;;;;0.80;0.50;;;19.90;51.50;;;;;;5021778;28;20493;-65
2023/01/17 02:19:03;;;;;;;0.95;0.60;;;19.90;51.60;;;;;;5020054;28;20029;-66
2023/01/17 02:21:54;;;;;;;0.80;0.57;;;19.90;51.70;;;;;;5021666;28;20029;-66
2023/01/17 02:24:29;;;;;;;1.13;0.60;;;19.90;51.60;;;;;;5019910;28;20121;-66
2023/01/17 02:27:03;;;;;;;1.05;0.70;;;19.90;51.70;;;;;;5016215;28;20022;-66
2023/01/17 02:29:49;;;;;;;0.93;0.50;;;19.90;51.70;;;;;;5023523;28;20026;-65
2023/01/17 02:32:22;;;;;;;0.90;0.60;;;19.90;51.70;;;;;;5017166;28;20390;-66
2023/01/17 02:35:11;;;;;;;0.65;0.40;;;19.80;51.70;;;;;;5021396;28;20049;-65
2023/01/17 02:37:53;;;;;;;1.08;0.52;;;19.80;51.70;;;;;;5018933;28;20040;-65
2023/01/17 02:40:31;;;;;;;0.90;0.60;;;19.80;51.70;;;;;;5020189;28;20040;-65
2023/01/17 02:43:01;;;;;;;1.45;0.70;;;19.80;51.80;;;;;;5021422;28;20491;-66
2023/01/17 02:45:28;;;;;;;0.60;0.50;;;19.80;51.80;;;;;;5025283;28;20145;-66
2023/01/17 02:47:53;;;;;;;0.63;0.50;;;19.80;51.80;;;;;;5020583;28;20126;-65
2023/01/17 02:50:25;;;;;;;0.63;0.52;;;19.80;51.80;;;;;;5016747;28;20520;-66
2023/01/17 02:53:16;;;;;;;0.95;0.60;;;19.80;51.90;;;;;;5025948;28;20041;-65
2023/01/17 02:55:49;;;;;;;1.20;0.65;;;19.80;51.90;;;;;;5033687;28;20120;-66
2023/01/17 02:58:27;;;;;;;0.40;0.40;;;19.80;52.00;;;;;;5020873;28;20496;-65
2023/01/17 03:01:05;;;;;;;1.05;0.80;;;19.80;52.00;;;;;;5021082;28;20074;-66
2023/01/17 03:03:49;;;;;;;0.82;0.50;;;19.70;52.00;;;;;;5018877;28;20101;-66
2023/01/17 03:06:21;;;;;;;0.60;0.50;;;19.70;52.00;;;;;;5020247;28;20018;-65
2023/01/17 03:08:48;;;;;;;1.00;0.60;;;19.80;52.00;;;;;;5018973;28;20029;-66
2023/01/17 03:11:15;;;;;;;0.90;0.60;;;19.70;52.00;;;;;;5017553;28;20049;-66
2023/01/17 03:13:41;;;;;;;0.85;0.70;;;19.70;52.10;;;;;;5018275;28;20033;-66
2023/01/17 03:16:18;;;;;;;0.80;0.40;;;19.70;52.00;;;;;;5036254;28;20436;-66
2023/01/17 03:18:44;;;;;;;0.45;0.40;;;19.70;52.10;;;;;;5018291;28;20033;-65
2023/01/17 03:21:09;;;;;;;0.73;0.50;;;19.70;52.10;;;;;;5020386;28;20472;-66
2023/01/17 03:23:35;;;;;;;0.75;0.40;;;19.70;52.10;;;;;;5025032;28;20171;-66
2023/01/17 03:26:01;;;;;;;1.10;0.50;;;19.70;52.20;;;;;;5021919;28;20033;-66
2023/01/17 03:28:26;;;;;;;0.60;0.47;;;19.70;52.20;;;;;;5022928;28;20030;-66
2023/01/17 03:30:52;;;;;;;0.75;0.47;;;19.70;52.20;;;;;;5023112;28;20028;-66
2023/01/17 03:33:17;;;;;;;0.57;0.45;;;19.70;52.30;;;;;;5024012;28;20390;-66
2023/01/17 03:35:47;;;;;;;0.75;0.60;;;19.70;52.20;;;;;;5024972;28;20033;-66
2023/01/17 03:38:13;;;;;;;1.15;0.68;;;19.60;52.20;;;;;;5023933;28;20473;-66
2023/01/17 03:40:39;;;;;;;0.65;0.40;;;19.60;52.20;;;;;;5023313;28;20121;-66
2023/01/17 03:43:05;;;;;;;0.45;0.40;;;19.60;52.20;;;;;;5023388;28;20025;-66
2023/01/17 03:45:30;;;;;;;0.90;0.50;;;19.60;52.20;;;;;;5029132;28;20469;-66
2023/01/17 03:47:56;;;;;;;0.70;0.50;;;19.60;52.20;;;;;;5021756;28;20049;-66
2023/01/17 03:50:22;;;;;;;0.73;0.40;;;19.60;52.30;;;;;;5025960;28;20022;-66
2023/01/17 03:52:48;;;;;;;0.55;0.40;;;19.60;52.30;;;;;;5021228;28;20430;-66
2023/01/17 03:55:14;;;;;;;1.17;0.50;;;19.60;52.30;;;;;;5023107;28;20049;-66
2023/01/17 03:57:39;;;;;;;0.40;0.40;;;19.60;52.30;;;;;;5021327;28;20499;-66
2023/01/17 04:00:06;;;;;;;0.93;0.50;;;19.60;52.30;;;;;;5026048;28;20113;-66
2023/01/17 04:02:31;;;;;;;0.40;0.40;;;19.60;52.30;;;;;;5023064;28;20549;-66
2023/01/17 04:04:57;;;;;;;0.90;0.50;;;19.60;52.40;;;;;;5020855;28;20028;-65
2023/01/17 04:07:22;;;;;;;0.88;0.60;;;19.60;52.40;;;;;;5022670;28;20049;-66
2023/01/17 04:09:48;;;;;;;0.60;0.55;;;19.60;52.40;;;;;;5022849;28;20029;-66
2023/01/17 04:12:14;;;;;;;0.57;0.45;;;19.60;52.40;;;;;;5023639;28;20048;-66
2023/01/17 04:14:39;;;;;;;0.60;0.50;;;19.60;52.40;;;;;;5021045;28;20056;-66
2023/01/17 04:17:06;;;;;;;0.73;0.40;;;19.50;52.40;;;;;;5036447;28;20026;-66
2023/01/17 04:19:35;;;;;;;0.50;0.50;;;19.60;52.40;;;;;;5022094;28;20442;-66
2023/01/17 04:22:00;;;;;;;1.48;0.60;;;19.50;52.40;;;;;;5023624;28;20056;-66
2023/01/17 04:24:26;;;;;;;0.60;0.40;;;19.50;52.40;;;;;;5024271;28;20076;-65
2023/01/17 04:26:51;;;;;;;0.40;0.40;;;19.50;52.50;;;;;;5021541;28;20050;-65
2023/01/17 04:29:17;;;;;;;0.77;0.52;;;19.60;52.50;;;;;;5022222;28;20034;-65
2023/01/17 04:31:43;;;;;;;0.68;0.50;;;19.50;52.50;;;;;;5021479;28;20030;-66
2023/01/17 04:34:08;;;;;;;0.40;0.40;;;19.50;52.50;;;;;;5020786;28;20048;-66
2023/01/17 04:36:34;;;;;;;0.52;0.35;;;19.50;52.50;;;;;;5021999;28;20038;-66
2023/01/17 04:39:00;;;;;;;0.45;0.40;;;19.50;52.50;;;;;;5019177;28;20057;-65
2023/01/17 04:41:25;;;;;;;0.52;0.45;;;19.50;52.50;;;;;;5022022;28;20026;-66
2023/01/17 04:43:51;;;;;;;0.75;0.52;;;19.50;52.60;;;;;;5018162;28;20389;-66
2023/01/17 04:46:16;;;;;;;0.35;0.35;;;19.50;52.60;;;;;;5020025;28;20030;-66
2023/01/17 04:48:42;;;;;;;0.40;0.40;;;19.50;52.60;;;;;;5021493;28;20124;-66
2023/01/17 04:51:08;;;;;;;0.65;0.50;;;19.50;52.60;;;;;;5017329;28;20033;-66
2023/01/17 04:53:33;;;;;;;0.70;0.50;;;19.50;52.70;;;;;;5021092;28;20071;-66
2023/01/17 04:55:59;;;;;;;0.88;0.40;;;19.50;52.60;;;;;;5018724;28;20083;-66
2023/01/17 04:58:25;;;;;;;1.00;0.68;;;19.50;52.70;;;;;;5020053;28;20029;-67
2023/01/17 05:00:51;;;;;;;0.50;0.40;;;19.50;52.70;;;;;;5016864;28;20026;-66
2023/01/17 05:03:21;;;;;;;0.45;0.40;;;19.50;52.80;;;;;;5023950;28;20029;-66
2023/01/17 05:05:47;;;;;;;0.80;0.55;;;19.40;52.80;;;;;;5023429;28;20022;-66
2023/01/17 05:08:14;;;;;;;0.50;0.47;;;19.40;52.90;;;;;;5023709;28;20030;-65
2023/01/17 05:10:39;;;;;;;0.57;0.50;;;19.40;53.00;;;;;;5022387;28;20032;-66
2023/01/17 05:13:05;;;;;;;0.50;0.50;;;19.40;53.20;;;;;;5025376;28;20383;-65
2023/01/17 05:15:31;;;;;;;0.85;0.57;;;19.40;53.10;;;;;;5021349;28;20034;-66
2023/01/17 05:17:57;;;;;;;0.80;0.55;;;19.40;53.10;;;;;;5019592;28;20128;-66
2023/01/17 05:20:24;;;;;;;0.73;0.40;;;19.40;53.10;;;;;;5022188;28;20373;-66
2023/01/17 05:22:54;;;;;;;0.50;0.50;;;19.40;53.10;;;;;;5023016;28;20018;-66
2023/01/17 05:25:22;;;;;;;0.60;0.50;;;19.40;53.20;;;;;;5021018;28;20559;-66
2023/01/17 05:27:48;;;;;;;0.75;0.40;;;19.40;53.20;;;;;;5014249;28;20197;-67
2023/01/17 05:30:13;;;;;;;0.57;0.43;;;19.40;53.20;;;;;;5019455;28;20406;-66
2023/01/17 05:32:40;;;;;;;0.60;0.40;;;19.40;53.70;;;;;;5018167;28;20088;-66
2023/01/17 05:35:06;;;;;;;0.50;0.38;;;19.40;53.20;;;;;;5022224;28;20017;-66
2023/01/17 05:37:32;;;;;;;0.95;0.50;;;19.40;53.20;;;;;;5022085;28;20053;-66
2023/01/17 05:39:57;;;;;;;1.13;0.50;;;19.40;53.20;;;;;;5017864;28;20411;-67
2023/01/17 05:42:23;;;;;;;1.35;0.70;;;19.40;53.20;;;;;;5021482;28;20022;-66
2023/01/17 05:44:48;;;;;;;0.40;0.32;;;19.40;53.30;;;;;;5022219;28;20037;-66
2023/01/17 05:47:14;;;;;;;0.85;0.43;;;19.30;53.20;;;;;;5020106;28;20022;-66
2023/01/17 05:49:39;;;;;;;0.70;0.52;;;19.40;53.30;;;;;;5021349;28;20032;-66
2023/01/17 05:52:05;;;;;;;0.40;0.35;;;19.30;53.80;;;;;;5029437;28;20550;-66
2023/01/17 05:54:30;;;;;;;0.70;0.50;;;19.40;53.40;;;;;;5020164;28;20073;-66
2023/01/17 05:56:56;;;;;;;1.15;0.52;;;19.30;53.40;;;;;;5021286;28;20029;-66
2023/01/17 05:59:22;;;;;;;0.40;0.40;;;19.30;53.70;;;;;;5016635;28;20469;-66
2023/01/17 06:01:47;;;;;;;0.32;0.32;;;19.40;53.40;;;;;;5020547;28;20088;-66
2023/01/17 06:04:13;;;;;;;0.63;0.50;;;19.40;53.50;;;;;;5022726;28;20029;-66
2023/01/17 06:06:38;;;;;;;0.70;0.50;;;19.40;53.50;;;;;;5021952;28;20022;-67
2023/01/17 06:09:04;;;;;;;1.25;0.60;;;19.30;53.50;;;;;;5017076;28;20030;-66
2023/01/17 06:11:30;;;;;;;0.75;0.50;;;19.30;54.00;;;;;;5021743;28;20025;-66
2023/01/17 06:13:55;;;;;;;0.70;0.40;;;19.30;53.50;;;;;;5020243;28;20334;-68
2023/01/17 06:16:21;;;;;;;1.17;0.52;;;19.40;54.20;;;;;;5021816;28;20115;-67
2023/01/17 06:18:46;;;;;;;0.52;0.40;;;19.40;54.90;;;;;;5021721;28;20061;-67
2023/01/17 06:21:12;;;;;;;0.95;0.50;;;19.60;55.20;;;;;;5021063;28;20041;-68
2023/01/17 06:23:37;;;;;;;0.98;0.52;;;19.70;55.20;;;;;;5022517;28;20457;-68
2023/01/17 06:26:04;;;;;;;1.73;0.60;;;19.80;55.00;;;;;;5018914;28;20021;-68
2023/01/17 06:28:29;;;;;;;0.85;0.60;;;20.00;55.10;;;;;;5022690;28;20117;-69
2023/01/17 06:30:55;;;;;;;0.60;0.50;;;20.10;55.00;;;;;;5018444;28;20037;-70
2023/01/17 06:33:21;;;;;;;0.40;0.40;;;20.30;55.10;;;;;;5021150;28;20040;-67
2023/01/17 06:35:48;;;;;;;0.60;0.40;;;20.40;54.90;;;;;;5024486;28;20192;-68
2023/01/17 06:38:14;;;;;;;0.65;0.40;;;20.60;54.90;;;;;;5024249;28;20393;-68
2023/01/17 06:40:39;;;;;;;0.80;0.50;;;20.70;54.70;;;;;;5020303;28;20080;-69
2023/01/17 06:43:05;;;;;;;1.00;0.47;;;20.90;54.60;;;;;;5021479;28;20033;-71
2023/01/17 06:45:33;;;;;;;0.75;0.50;;;21.00;54.50;;;;;;5020037;28;20551;-68
2023/01/17 06:47:59;;;;;;;0.40;0.40;;;21.20;54.40;;;;;;5022860;28;20030;-67
2023/01/17 06:50:25;;;;;;;0.40;0.30;;;21.30;54.30;;;;;;5019830;28;20411;-69
2023/01/17 06:52:56;;;;;;;1.05;0.40;;;21.50;54.10;;;;;;5020589;28;20049;-68
2023/01/17 06:55:22;;;;;;;0.60;0.40;;;21.70;53.90;;;;;;5021146;28;20436;-68
2023/01/17 06:57:49;;;;;;;0.30;0.30;;;21.80;53.70;;;;;;5018107;28;20029;-68
2023/01/17 07:00:15;;;;;;;0.50;0.40;;;21.90;53.60;;;;;;5024217;28;20492;-68
2023/01/17 07:02:41;;;;;;;0.40;0.30;;;22.10;53.30;;;;;;5019966;28;20469;-68
2023/01/17 07:05:07;;;;;;;0.20;0.20;;;22.00;53.10;;;;;;5016716;28;20018;-68
2023/01/17 07:07:33;;;;;;;0.30;0.30;;;22.00;53.20;;;;;;5015446;28;20440;-67
2023/01/17 07:09:59;;;;;;;0.40;0.40;;;22.00;53.30;;;;;;5016468;28;20034;-70
2023/01/17 07:12:25;;;;;;;0.38;0.30;;;22.00;53.30;;;;;;5036927;28;20030;-66
2023/01/17 07:14:50;;;;;;;0.28;0.28;;;21.90;53.30;;;;;;5017962;28;20374;-68
2023/01/17 07:17:16;;;;;;;0.93;0.43;;;21.90;53.30;;;;;;5020622;28;20100;-68
2023/01/17 07:19:42;;;;;;;0.35;0.32;;;22.00;53.40;;;;;;5020044;28;20032;-69
2023/01/17 07:22:09;;;;;;;0.35;0.35;;;22.00;53.40;;;;;;5019610;28;20485;-67
2023/01/17 07:24:36;;;;;;;0.30;0.30;;;22.00;53.60;;;;;;5021005;28;20026;-69
2023/01/17 07:27:02;;;;;;;0.22;0.22;;;22.00;53.60;;;;;;5021086;28;20460;-68
2023/01/17 07:29:28;;;;;;;0.75;0.40;;;22.10;53.40;;;;;;5018855;28;20025;-69
2023/01/17 07:31:54;;;;;;;0.52;0.40;;;22.10;53.30;;;;;;5020025;28;20037;-68
2023/01/17 07:34:19;;;;;;;1.48;0.60;;;22.10;52.50;;;;;;5022066;28;20046;-67
2023/01/17 07:36:47;;;;;;;0.82;0.60;;;22.10;50.90;;;;;;5021400;28;20025;-68
2023/01/17 07:39:12;;;;;;;1.08;0.70;;;22.10;50.20;;;;;;5017380;28;20025;-69
2023/01/17 07:41:40;;;;;;;0.90;0.50;;;22.10;50.00;;;;;;5019531;28;20185;-67
2023/01/17 07:44:07;;;;;;;1.02;0.50;;;22.10;50.30;;;;;;5017660;28;20057;-67
2023/01/17 07:46:33;;;;;;;0.55;0.35;;;22.10;50.60;;;;;;5016162;28;20053;-68
2023/01/17 07:48:58;;;;;;;0.70;0.40;;;22.10;50.90;;;;;;5019453;28;20457;-68
2023/01/17 07:51:24;;;;;;;0.40;0.40;;;22.10;51.20;;;;;;5017483;28;20521;-68
2023/01/17 07:53:49;;;;;;;0.63;0.50;;;22.10;51.50;;;;;;5017997;28;20112;-68
2023/01/17 07:56:15;;;;;;;0.60;0.50;;;22.10;51.70;;;;;;5019325;28;20457;-69
2023/01/17 07:58:41;;;;;;;0.65;0.50;;;22.20;51.90;;;;;;5019468;28;20331;-70
2023/01/17 08:01:11;;;;;;;1.48;0.60;;;22.20;52.10;;;;;;5021944;28;20030;-68
2023/01/17 08:03:40;;;;;;;0.68;0.40;;;22.20;52.40;;;;;;5018334;28;20032;-68
2023/01/17 08:06:28;;;;;;;1.00;0.50;;;22.20;52.50;;;;;;5015605;28;20523;-68
2023/01/17 08:08:55;;;;;;;0.73;0.50;;;22.20;53.20;;;;;;5023069;28;20261;-66
2023/01/17 08:11:21;;;;;;;0.57;0.43;;;22.30;53.30;;;;;;5029879;28;20565;-68
2023/01/17 08:13:47;;;;;;;0.70;0.40;;;22.30;53.20;;;;;;5022981;28;20108;-69
2023/01/17 08:16:14;;;;;;;0.57;0.47;;;22.30;53.80;;;;;;5022682;28;20389;-69
2023/01/17 08:18:40;;;;;;;0.50;0.40;;;22.30;54.00;;;;;;5024027;28;20045;-67
2023/01/17 08:21:15;;;;;;;0.40;0.40;;;22.30;54.10;;;;;;5021732;28;20616;-68
2023/01/17 08:23:42;;;;;;;0.55;0.40;;;22.40;54.40;;;;;;5025039;28;20108;-68
2023/01/17 08:26:08;;;;;;;0.30;0.30;;;22.40;54.70;;;;;;5023891;28;20036;-68
2023/01/17 08:28:33;;;;;;;0.52;0.50;;;22.40;54.40;;;;;;5025315;28;20037;-66
2023/01/17 08:31:07;;;;;;;0.93;0.50;;;22.40;54.70;;;;;;5025647;28;20373;-68
2023/01/17 08:33:33;;;;;;;0.40;0.40;;;22.40;53.00;;;;;;5021476;28;20520;-68
2023/01/17 08:35:58;;;;;;;0.68;0.50;;;22.40;52.90;;;;;;5024590;28;20029;-69
2023/01/17 08:38:24;;;;;;;0.57;0.40;;;22.40;52.60;;;;;;5021626;28;20385;-68
2023/01/17 08:40:50;;;;;;;0.50;0.50;;;22.40;52.30;;;;;;5022839;28;20032;-68
2023/01/17 08:43:16;;;;;;;0.50;0.47;;;22.40;52.10;;;;;;5027849;28;20029;-68
2023/01/17 08:45:47;;;;;;;0.80;0.55;;;22.40;51.90;;;;;;5016343;28;20041;-67
2023/01/17 08:48:13;;;;;;;0.52;0.40;;;22.40;51.80;;;;;;5022639;28;20026;-66
2023/01/17 08:50:38;;;;;;;0.70;0.50;;;22.40;52.70;;;;;;5019741;28;20508;-67
2023/01/17 08:53:04;;;;;;;1.02;0.50;;;22.50;53.10;;;;;;5018677;28;20082;-68
2023/01/17 08:55:29;;;;;;;0.40;0.40;;;22.50;53.00;;;;;;5021312;28;20489;-68
2023/01/17 08:57:55;;;;;;;1.15;0.65;;;22.50;53.10;;;;;;5022607;28;20131;-67
2023/01/17 09:00:21;;;;;;;0.70;0.47;;;22.50;52.50;;;;;;5023403;28;20034;-68
2023/01/17 09:02:49;;;;;;;0.40;0.40;;;22.50;53.10;;;;;;5020160;28;20076;-68
2023/01/17 09:05:15;;;;;;;1.65;0.50;;;22.50;52.70;;;;;;5021259;28;20033;-68
2023/01/17 09:07:40;;;;;;;0.88;0.50;;;22.50;52.80;;;;;;5021376;28;20026;-69
2023/01/17 09:10:06;;;;;;;5.00;0.50;;;22.50;53.50;;;;;;5023820;28;20220;-67
2023/01/17 09:12:33;;;;;;;0.68;0.40;;;22.50;53.10;;;;;;5021001;28;20480;-66
2023/01/17 09:14:59;;;;;;;0.50;0.47;;;22.50;52.40;;;;;;5027297;28;20026;-67
2023/01/17 09:17:25;;;;;;;0.70;0.60;;;22.50;52.50;;;;;;5023306;28;20039;-66
2023/01/17 09:19:50;;;;;;;1.48;0.52;;;22.50;53.70;;;;;;5018933;28;20030;-67
2023/01/17 09:22:16;;;;;;;0.70;0.45;;;22.50;52.60;;;;;;5016036;28;20026;-67
2023/01/17 09:24:41;;;;;;;1.00;0.50;;;22.60;51.60;;;;;;5021125;28;20030;-67
2023/01/17 09:27:07;;;;;;;0.80;0.52;;;22.50;51.30;;;;;;5034069;28;20045;-66
2023/01/17 09:29:33;;;;;;;0.45;0.40;;;22.60;51.30;;;;;;5022888;28;20029;-66
2023/01/17 09:31:59;;;;;;;0.80;0.50;;;22.50;51.00;;;;;;5017436;28;20025;-68
2023/01/17 09:34:25;;;;;;;0.70;0.47;;;22.50;50.70;;;;;;5021510;28;20091;-69
2023/01/17 09:36:51;;;;;;;0.85;0.50;;;22.50;50.80;;;;;;5019680;28;20437;-69
2023/01/17 09:39:16;;;;;;;1.30;0.52;;;22.50;50.60;;;;;;5020262;28;20033;-67
2023/01/17 09:42:06;;;;;;;1.48;0.50;;;22.50;50.50;;;;;;5023340;28;20499;-68
2023/01/17 09:44:40;;;;;;;;;;;22.50;50.30;;;;;;5018606;28;20045;-68
2023/01/17 09:47:25;;;;;;;1.00;0.50;;;22.50;50.30;;;;;;5038691;28;19927;-69
2023/01/17 09:49:55;;;;;;;1.42;0.70;;;22.50;50.10;;;;;;5019951;28;20034;-67
2023/01/17 09:52:22;;;;;;;;;;;22.50;50.50;;;;;;5020210;28;20021;-67
2023/01/17 09:54:49;;;;;;;0.45;0.40;;;22.50;50.60;;;;;;5024364;28;20328;-67
2023/01/17 09:57:43;;;;;;;0.70;0.45;;;22.40;50.60;;;;;;5020406;28;20334;-66
2023/01/17 10:00:23;;;;;;;1.77;0.52;;;22.40;50.70;;;;;;5017772;28;20119;-66
2023/01/17 10:03:21;;;;;;;1.05;0.50;;;22.40;51.10;;;;;;5020092;28;20404;-66
2023/01/17 10:06:05;;;;;;;1.00;0.60;;;22.40;50.80;;;;;;5027587;28;20083;-67
2023/01/17 10:09:22;;;;;;;1.70;0.60;;;22.40;50.80;;;;;;5021720;28;20366;-68
2023/01/17 10:12:04;;;;;;;0.93;0.60;;;22.50;50.90;;;;;;5014499;28;20034;-68
2023/01/17 10:14:33;;;;;;;0.70;0.50;;;22.40;50.80;;;;;;5017027;28;20032;-68
2023/01/17 10:17:01;;;;;;;1.15;0.50;;;22.50;50.80;;;;;;5020200;28;20030;-67
2023/01/17 10:20:11;;;;;;;1.58;0.68;;;22.40;50.80;;;;;;5017573;28;20437;-67
2023/01/17 10:23:16;;;;;;;1.02;0.55;;;22.40;50.50;;;;;;5015997;28;20113;-67
2023/01/17 10:25:47;;;;;;;0.63;0.52;;;22.40;50.40;;;;;;5022139;28;20908;-68
2023/01/17 10:28:36;;;;;;;2.28;0.55;;;22.50;50.40;;;;;;5020186;28;20036;-67
2023/01/17 10:31:04;;;;;;;;;;;22.40;50.40;;;;;;5017127;28;20036;-68
2023/01/17 10:33:43;;;;;;;0.95;0.55;;;22.40;50.30;;;;;;5022320;28;19948;-66
2023/01/17 10:36:14;;;;;;;1.25;0.60;;;22.40;50.30;;;;;;5021793;28;20493;-68
2023/01/17 10:38:45;;;;;;;1.55;0.70;;;22.40;50.30;;;;;;5020179;28;20058;-67
2023/01/17 10:41:28;;;;;;;1.13;0.60;;;22.40;50.30;;;;;;5018434;28;20029;-66
2023/01/17 10:44:05;;;;;;;1.17;0.70;;;22.40;50.40;;;;;;5017636;28;20057;-68
2023/01/17 10:46:37;;;;;;;1.65;0.60;;;22.40;50.50;;;;;;5019174;28;20454;-67
2023/01/17 10:49:03;;;;;;;0.98;0.50;;;22.30;50.40;;;;;;5027417;28;20159;-66
2023/01/17 10:52:07;;;;;;;0.70;0.70;;;22.40;50.40;;;;;;5014812;28;20449;-66
2023/01/17 10:54:37;;;;;;;0.40;0.40;;;22.30;50.30;;;;;;5022152;28;20154;-67
2023/01/17 10:57:03;;;;;;;1.08;0.70;;;22.30;50.30;;;;;;5019380;28;20022;-66
2023/01/17 10:59:34;;;;;;;0.82;0.50;;;22.40;50.40;;;;;;5016474;28;20025;-67
2023/01/17 11:02:06;;;;;;;1.00;0.60;;;22.30;50.30;;;;;;5017405;28;20449;-67
2023/01/17 11:04:38;;;;;;;0.82;0.60;;;22.30;50.40;;;;;;5020500;28;20024;-66
2023/01/17 11:07:22;;;;;;;0.60;0.57;;;22.40;50.40;;;;;;5023329;28;20030;-65
2023/01/17 11:09:55;;;;;;;0.73;0.60;;;22.30;50.40;;;;;;5033748;28;20030;-66
2023/01/17 11:12:38;;;;;;;0.50;0.50;;;22.30;50.50;;;;;;5019557;28;20029;-65
2023/01/17 11:15:18;;;;;;;0.50;0.50;;;22.30;50.50;;;;;;5019726;28;20136;-63
2023/01/17 11:17:46;;;;;;;1.17;0.65;;;22.30;50.60;;;;;;5021992;28;20045;-63
2023/01/17 11:20:15;;;;;;;1.00;0.60;;;22.30;50.60;;;;;;5015232;28;20030;-64
2023/01/17 11:22:47;;;;;;;0.98;0.43;;;22.30;50.50;;;;;;5019973;28;20026;-64
2023/01/17 11:25:23;;;;;;;0.93;0.60;;;22.30;50.50;;;;;;5020242;28;20437;-65
2023/01/17 11:28:06;;;;;;;1.33;0.60;;;22.30;50.50;;;;;;5017036;28;20030;-63
2023/01/17 11:30:31;;;;;;;1.17;0.70;;;22.20;50.50;;;;;;5021552;28;20472;-65
2023/01/17 11:32:59;;;;;;;1.95;0.60;;;22.20;50.50;;;;;;5020295;28;20029;-67
2023/01/17 11:35:31;;;;;;;0.98;0.60;;;22.30;50.70;;;;;;5019467;28;20022;-66
2023/01/17 11:38:02;;;;;;;0.85;0.50;;;22.20;50.80;;;;;;5019542;28;20536;-67
2023/01/17 11:40:40;;;;;;;1.20;0.50;;;22.20;50.90;;;;;;5020148;28;20029;-67
2023/01/17 11:43:21;;;;;;;0.60;0.40;;;22.20;51.00;;;;;;5022354;28;20029;-67
2023/01/17 11:46:14;;;;;;;0.73;0.50;;;22.20;51.10;;;;;;5021383;28;20068;-67
2023/01/17 11:48:40;;;;;;;1.50;0.40;;;22.20;51.10;;;;;;5015978;28;20048;-67
2023/01/17 11:51:27;;;;;;;0.57;0.47;;;22.30;51.30;;;;;;5021644;28;20030;-68
2023/01/17 11:53:54;;;;;;;0.70;0.50;;;22.20;51.20;;;;;;5020062;28;20507;-68
2023/01/17 11:56:31;;;;;;;0.35;0.30;;;22.30;51.30;;;;;;5024849;28;20037;-67
2023/01/17 11:59:23;;;;;;;0.40;0.40;;;22.20;51.30;;;;;;5021207;28;20033;-68
2023/01/17 12:02:34;;;;;;;0.90;0.50;;;22.30;51.40;;;;;;5024471;28;20512;-67
2023/01/17 12:05:19;;;;;;;0.45;0.40;;;22.30;51.30;;;;;;5006479;28;20030;-67
2023/01/17 12:08:01;;;;;;;0.70;0.50;;;22.30;51.40;;;;;;5000295;28;20139;-67
2023/01/17 12:10:36;;;;;;;0.52;0.40;;;22.30;51.50;;;;;;5016128;28;20036;-65
2023/01/17 12:19:02;;;;;;;0.80;0.50;;;22.40;51.60;;;;;;5020867;28;20060;-68
2023/01/17 12:21:57;;;;;;;0.57;0.40;;;22.40;51.50;;;;;;5019364;28;20022;-68
2023/01/17 12:24:52;;;;;;;0.95;0.50;;;22.40;51.50;;;;;;5015539;28;20038;-69
2023/01/17 12:27:33;;;;;;;1.35;0.50;;;22.40;51.40;;;;;;5021276;28;20036;-68
2023/01/17 12:30:26;;;;;;;0.50;0.47;;;22.50;51.50;;;;;;5019996;28;20023;-67
2023/01/17 12:33:10;;;;;;;1.50;0.50;;;22.50;51.50;;;;;;5035767;28;20048;-67
2023/01/17 12:35:42;;;;;;;0.57;0.45;;;22.50;51.40;;;;;;5018555;28;20030;-67
2023/01/17 12:38:11;;;;;;;1.02;0.50;;;22.50;51.50;;;;;;5026992;28;20030;-68
2023/01/17 12:40:48;;;;;;;1.02;0.50;;;22.50;51.50;;;;;;5021272;28;20021;-68
2023/01/17 12:43:31;;;;;;;0.75;0.47;;;22.50;51.50;;;;;;5021812;28;20101;-67
2023/01/17 12:46:02;;;;;;;0.63;0.50;;;22.50;51.40;;;;;;5020710;28;20044;-67
2023/01/17 12:48:34;;;;;;;0.82;0.50;;;22.60;51.70;;;;;;5018994;28;20164;-69
2023/01/17 12:51:14;;;;;;;1.60;0.50;;;22.60;51.50;;;;;;5021418;28;20084;-68
2023/01/17 12:53:56;;;;;;;0.43;0.43;;;22.60;51.40;;;;;;5019540;28;20493;-66
2023/01/17 12:56:30;;;;;;;0.77;0.50;;;22.60;51.50;;;;;;5019058;28;20079;-67
2023/01/17 12:59:17;;;;;;;0.50;0.50;;;22.60;51.40;;;;;;5018745;28;20025;-67
2023/01/17 13:01:57;;;;;;;0.60;0.50;;;22.70;51.40;;;;;;5036281;28;20032;-69
2023/01/17 13:04:43;;;;;;;0.63;0.60;;;22.70;51.40;;;;;;5018950;28;20053;-69
2023/01/17 13:07:30;;;;;;;1.20;0.50;;;22.70;51.30;;;;;;5021414;28;20068;-67
2023/01/17 13:10:26;;;;;;;0.75;0.50;;;22.70;51.50;;;;;;5020453;28;20476;-68
2023/01/17 13:12:55;;;;;;;0.82;0.70;;;22.70;50.80;;;;;;5022440;28;20026;-68
2023/01/17 13:15:25;;;;;;;;;;;22.70;50.60;;;;;;5021239;28;20508;-69
2023/01/17 13:18:02;;;;;;;1.20;0.60;;;22.70;50.40;;;;;;5020933;28;19967;-70
2023/01/17 13:20:35;;;;;;;1.23;0.70;;;22.70;50.50;;;;;;5018509;28;20026;-68
2023/01/17 13:23:13;;;;;;;1.45;0.65;;;22.70;50.50;;;;;;5022688;28;20433;-68
2023/01/17 13:25:48;;;;;;;1.10;0.63;;;22.70;50.50;;;;;;5022680;28;20037;-68
2023/01/17 13:28:47;;;;;;;1.25;0.80;;;22.70;50.40;;;;;;5023931;28;20515;-69
2023/01/17 13:31:32;;;;;;;0.90;0.50;;;22.70;50.50;;;;;;5021489;28;20065;-68
2023/01/17 13:34:08;;;;;;;0.85;0.60;;;22.70;50.40;;;;;;5019233;28;20416;-66
2023/01/17 13:36:44;;;;;;;0.77;0.60;;;22.70;50.70;;;;;;5018834;28;20912;-67
2023/01/17 13:39:15;;;;;;;1.88;0.60;;;22.70;50.80;;;;;;5019872;28;20450;-64
2023/01/17 13:41:50;;;;;;;1.00;0.65;;;22.70;50.80;;;;;;5022257;28;20503;-64
2023/01/17 13:44:23;;;;;;;1.10;0.65;;;22.70;50.70;;;;;;5019105;28;20025;-64
2023/01/17 13:46:55;;;;;;;1.05;0.57;;;22.70;50.70;;;;;;5022985;28;20483;-65
2023/01/17 13:49:49;;;;;;;1.58;0.60;;;22.70;50.70;;;;;;5019120;28;20030;-65
2023/01/17 13:52:17;;;;;;;1.20;0.60;;;22.70;50.70;;;;;;5023167;28;20022;-64
2023/01/17 13:54:51;;;;;;;1.47;0.80;;;22.70;50.70;;;;;;5021011;28;20116;-66
2023/01/17 13:57:31;;;;;;;1.10;0.60;;;22.70;50.70;;;;;;5020290;28;20378;-64
2023/01/17 14:00:20;;;;;;;1.50;0.90;;;22.70;50.70;;;;;;5018364;28;20030;-64
2023/01/17 14:02:50;;;;;;;1.30;0.80;;;22.70;50.60;;;;;;5016081;28;20069;-64
2023/01/17 14:05:21;;;;;;;1.85;0.80;;;22.70;50.50;;;;;;5018547;28;20449;-64
2023/01/17 14:07:56;;;;;;;1.40;0.70;;;22.70;50.40;;;;;;5022976;28;20462;-64
2023/01/17 14:10:45;;;;;;;2.28;0.90;;;22.70;50.40;;;;;;5019539;28;20567;-64
2023/01/17 14:13:43;;;;;;;2.90;1.00;;;22.60;50.40;;;;;;5020468;28;20079;-64
2023/01/17 14:16:21;;;;;;;3.33;0.95;;;22.60;50.30;;;;;;5011723;28;20036;-65
2023/01/17 14:18:47;;;;;;;2.10;0.90;;;22.60;50.50;;;;;;5019077;28;20040;-65
2023/01/17 14:21:18;;;;;;;2.70;1.00;;;22.60;50.30;;;;;;5020301;28;20081;-64
2023/01/17 14:24:14;;;;;;;2.75;1.20;;;22.60;50.30;;;;;;5020560;28;20038;-65
2023/01/17 14:26:54;;;;;;;2.05;1.00;;;22.50;50.20;;;;;;5019765;28;20449;-64
2023/01/17 14:29:41;;;;;;;2.65;1.10;;;22.50;50.20;;;;;;5020384;28;20097;-65
2023/01/17 14:32:20;;;;;;;2.97;1.05;;;22.50;50.30;;;;;;5022304;28;20025;-66
2023/01/17 14:34:48;;;;;;;2.22;0.93;;;22.50;50.30;;;;;;5019111;28;20026;-65